sensor_id;sensor_type;location;lat;lon;timestamp;P1;durP1;ratioP1;P2;durP2;ratioP2
27804;SDS011;15183;51.350;11.102;2023-10-09T00:01:06;1.92;;;1.50;;
27804;SDS011;15183;51.350;11.102;2023-10-09T00:03:46;1.85;;;1.20;;
27804;SDS011;15183;51.350;11.102;2023-10-09T00:06:17;1.30;;;1.20;;
27804;SDS011;15183;51.350;11.102;2023-10-09T00:08:49;3.08;;;1.95;;
27804;SDS011;15183;51.350;11.102;2023-10-09T00:11:20;1.73;;;1.40;;
27804;SDS011;15183;51.350;11.102;2023-10-09T00:13:47;3.28;;;2.00;;
27804;SDS011;15183;51.350;11.102;2023-10-09T00:16:20;2.63;;;1.42;;
27804;SDS011;15183;51.350;11.102;2023-10-09T00:19:00;2.42;;;1.50;;
27804;SDS011;15183;51.350;11.102;2023-10-09T00:21:46;2.38;;;1.52;;
27804;SDS011;15183;51.350;11.102;2023-10-09T00:24:14;3.30;;;1.80;;
27804;SDS011;15183;51.350;11.102;2023-10-09T00:26:52;3.83;;;2.20;;
27804;SDS011;15183;51.350;11.102;2023-10-09T00:29:27;2.65;;;1.88;;
27804;SDS011;15183;51.350;11.102;2023-10-09T00:32:00;2.22;;;1.80;;
27804;SDS011;15183;51.350;11.102;2023-10-09T00:34:39;3.08;;;1.75;;
27804;SDS011;15183;51.350;11.102;2023-10-09T00:37:06;2.30;;;1.80;;
27804;SDS011;15183;51.350;11.102;2023-10-09T00:42:10;3.70;;;1.70;;
27804;SDS011;15183;51.350;11.102;2023-10-09T00:44:47;3.70;;;2.08;;
27804;SDS011;15183;51.350;11.102;2023-10-09T00:47:14;3.70;;;2.00;;
27804;SDS011;15183;51.350;11.102;2023-10-09T00:49:49;2.20;;;1.45;;
27804;SDS011;15183;51.350;11.102;2023-10-09T00:52:34;2.38;;;1.63;;
27804;SDS011;15183;51.350;11.102;2023-10-09T00:55:10;4.18;;;1.40;;
27804;SDS011;15183;51.350;11.102;2023-10-09T00:57:47;2.42;;;1.23;;
27804;SDS011;15183;51.350;11.102;2023-10-09T01:00:23;3.10;;;1.50;;
27804;SDS011;15183;51.350;11.102;2023-10-09T01:03:12;2.80;;;2.00;;
27804;SDS011;15183;51.350;11.102;2023-10-09T01:05:51;3.72;;;1.70;;
27804;SDS011;15183;51.350;11.102;2023-10-09T01:08:38;2.33;;;1.65;;
27804;SDS011;15183;51.350;11.102;2023-10-09T01:11:06;2.67;;;1.65;;
27804;SDS011;15183;51.350;11.102;2023-10-09T01:13:55;2.20;;;1.60;;
27804;SDS011;15183;51.350;11.102;2023-10-09T01:16:33;1.95;;;1.48;;
27804;SDS011;15183;51.350;11.102;2023-10-09T01:19:00;2.50;;;1.40;;
27804;SDS011;15183;51.350;11.102;2023-10-09T01:21:32;2.10;;;1.70;;
27804;SDS011;15183;51.350;11.102;2023-10-09T01:23:58;2.40;;;1.48;;
27804;SDS011;15183;51.350;11.102;2023-10-09T01:26:25;3.20;;;1.67;;
27804;SDS011;15183;51.350;11.102;2023-10-09T01:28:51;3.65;;;1.63;;
27804;SDS011;15183;51.350;11.102;2023-10-09T01:31:24;1.38;;;1.27;;
27804;SDS011;15183;51.350;11.102;2023-10-09T01:33:59;2.78;;;1.92;;
27804;SDS011;15183;51.350;11.102;2023-10-09T01:36:26;2.63;;;1.60;;
27804;SDS011;15183;51.350;11.102;2023-10-09T01:38:59;3.55;;;1.58;;
27804;SDS011;15183;51.350;11.102;2023-10-09T01:41:33;4.90;;;1.80;;
27804;SDS011;15183;51.350;11.102;2023-10-09T01:44:00;2.35;;;1.63;;
27804;SDS011;15183;51.350;11.102;2023-10-09T01:46:37;2.70;;;1.80;;
27804;SDS011;15183;51.350;11.102;2023-10-09T01:49:04;2.67;;;1.50;;
27804;SDS011;15183;51.350;11.102;2023-10-09T01:51:42;1.98;;;1.45;;
27804;SDS011;15183;51.350;11.102;2023-10-09T01:54:08;2.92;;;1.17;;
27804;SDS011;15183;51.350;11.102;2023-10-09T01:56:42;2.40;;;1.30;;
27804;SDS011;15183;51.350;11.102;2023-10-09T01:59:12;3.10;;;1.85;;
27804;SDS011;15183;51.350;11.102;2023-10-09T02:01:38;1.88;;;1.63;;
27804;SDS011;15183;51.350;11.102;2023-10-09T02:04:13;3.20;;;1.48;;
27804;SDS011;15183;51.350;11.102;2023-10-09T02:06:41;1.73;;;1.25;;
27804;SDS011;15183;51.350;11.102;2023-10-09T02:09:08;1.95;;;1.50;;
27804;SDS011;15183;51.350;11.102;2023-10-09T02:11:45;1.67;;;1.25;;
27804;SDS011;15183;51.350;11.102;2023-10-09T02:14:11;1.65;;;1.50;;
27804;SDS011;15183;51.350;11.102;2023-10-09T02:16:47;2.70;;;1.63;;
27804;SDS011;15183;51.350;11.102;2023-10-09T02:19:34;2.47;;;1.67;;
27804;SDS011;15183;51.350;11.102;2023-10-09T02:22:01;2.53;;;1.67;;
27804;SDS011;15183;51.350;11.102;2023-10-09T02:24:40;2.75;;;1.65;;
27804;SDS011;15183;51.350;11.102;2023-10-09T02:27:13;2.35;;;1.80;;
27804;SDS011;15183;51.350;11.102;2023-10-09T02:29:59;2.03;;;1.55;;
27804;SDS011;15183;51.350;11.102;2023-10-09T02:32:33;2.88;;;1.63;;
27804;SDS011;15183;51.350;11.102;2023-10-09T02:35:01;2.83;;;1.50;;
27804;SDS011;15183;51.350;11.102;2023-10-09T02:37:36;2.47;;;1.70;;
27804;SDS011;15183;51.350;11.102;2023-10-09T02:40:04;2.00;;;1.45;;
27804;SDS011;15183;51.350;11.102;2023-10-09T02:42:34;2.00;;;1.35;;
27804;SDS011;15183;51.350;11.102;2023-10-09T02:45:00;2.30;;;1.80;;
27804;SDS011;15183;51.350;11.102;2023-10-09T02:47:29;1.50;;;1.30;;
27804;SDS011;15183;51.350;11.102;2023-10-09T02:50:03;3.03;;;1.70;;
27804;SDS011;15183;51.350;11.102;2023-10-09T02:52:45;2.22;;;1.25;;
27804;SDS011;15183;51.350;11.102;2023-10-09T02:55:19;2.42;;;1.67;;
27804;SDS011;15183;51.350;11.102;2023-10-09T02:57:52;1.92;;;1.52;;
27804;SDS011;15183;51.350;11.102;2023-10-09T03:00:31;1.80;;;1.48;;
27804;SDS011;15183;51.350;11.102;2023-10-09T03:03:02;2.03;;;1.42;;
27804;SDS011;15183;51.350;11.102;2023-10-09T03:05:32;2.15;;;1.40;;
27804;SDS011;15183;51.350;11.102;2023-10-09T03:07:59;2.15;;;1.73;;
27804;SDS011;15183;51.350;11.102;2023-10-09T03:10:25;3.60;;;1.92;;
27804;SDS011;15183;51.350;11.102;2023-10-09T03:12:52;1.77;;;1.40;;
27804;SDS011;15183;51.350;11.102;2023-10-09T03:15:19;3.67;;;1.85;;
27804;SDS011;15183;51.350;11.102;2023-10-09T03:17:46;2.70;;;1.90;;
27804;SDS011;15183;51.350;11.102;2023-10-09T03:20:16;4.57;;;2.00;;
27804;SDS011;15183;51.350;11.102;2023-10-09T03:22:45;2.20;;;1.50;;
27804;SDS011;15183;51.350;11.102;2023-10-09T03:25:13;1.63;;;1.40;;
27804;SDS011;15183;51.350;11.102;2023-10-09T03:27:42;3.20;;;1.60;;
27804;SDS011;15183;51.350;11.102;2023-10-09T03:30:16;2.05;;;1.70;;
27804;SDS011;15183;51.350;11.102;2023-10-09T03:32:48;1.85;;;1.42;;
27804;SDS011;15183;51.350;11.102;2023-10-09T03:35:22;1.77;;;1.58;;
27804;SDS011;15183;51.350;11.102;2023-10-09T03:37:56;4.07;;;1.70;;
27804;SDS011;15183;51.350;11.102;2023-10-09T03:40:26;5.35;;;1.80;;
27804;SDS011;15183;51.350;11.102;2023-10-09T03:42:52;2.38;;;1.65;;
27804;SDS011;15183;51.350;11.102;2023-10-09T03:45:19;3.15;;;1.70;;
27804;SDS011;15183;51.350;11.102;2023-10-09T03:47:52;3.75;;;1.58;;
27804;SDS011;15183;51.350;11.102;2023-10-09T03:50:37;1.92;;;1.48;;
27804;SDS011;15183;51.350;11.102;2023-10-09T03:53:04;2.53;;;1.75;;
27804;SDS011;15183;51.350;11.102;2023-10-09T03:55:37;2.20;;;1.55;;
27804;SDS011;15183;51.350;11.102;2023-10-09T03:58:05;2.42;;;1.58;;
27804;SDS011;15183;51.350;11.102;2023-10-09T04:00:32;2.10;;;1.55;;
27804;SDS011;15183;51.350;11.102;2023-10-09T04:03:10;2.90;;;1.70;;
27804;SDS011;15183;51.350;11.102;2023-10-09T04:05:39;3.25;;;1.80;;
27804;SDS011;15183;51.350;11.102;2023-10-09T04:08:09;3.10;;;2.03;;
27804;SDS011;15183;51.350;11.102;2023-10-09T04:10:42;2.63;;;1.48;;
27804;SDS011;15183;51.350;11.102;2023-10-09T04:13:17;3.85;;;1.92;;
27804;SDS011;15183;51.350;11.102;2023-10-09T04:15:49;3.58;;;1.80;;
27804;SDS011;15183;51.350;11.102;2023-10-09T04:18:18;3.47;;;1.83;;
27804;SDS011;15183;51.350;11.102;2023-10-09T04:20:46;2.63;;;1.75;;
27804;SDS011;15183;51.350;11.102;2023-10-09T04:23:16;2.65;;;1.55;;
27804;SDS011;15183;51.350;11.102;2023-10-09T04:25:59;2.45;;;1.63;;
27804;SDS011;15183;51.350;11.102;2023-10-09T04:28:25;3.03;;;1.77;;
27804;SDS011;15183;51.350;11.102;2023-10-09T04:30:55;2.30;;;1.55;;
27804;SDS011;15183;51.350;11.102;2023-10-09T04:33:24;4.60;;;2.10;;
27804;SDS011;15183;51.350;11.102;2023-10-09T04:35:55;2.72;;;1.90;;
27804;SDS011;15183;51.350;11.102;2023-10-09T04:38:46;3.28;;;1.55;;
27804;SDS011;15183;51.350;11.102;2023-10-09T04:41:31;3.50;;;1.75;;
27804;SDS011;15183;51.350;11.102;2023-10-09T04:44:00;4.82;;;1.85;;
27804;SDS011;15183;51.350;11.102;2023-10-09T04:46:47;2.85;;;1.80;;
27804;SDS011;15183;51.350;11.102;2023-10-09T04:49:34;3.25;;;1.90;;
27804;SDS011;15183;51.350;11.102;2023-10-09T04:52:27;2.60;;;1.88;;
27804;SDS011;15183;51.350;11.102;2023-10-09T04:55:16;4.10;;;1.75;;
27804;SDS011;15183;51.350;11.102;2023-10-09T04:57:50;4.78;;;2.05;;
27804;SDS011;15183;51.350;11.102;2023-10-09T05:00:39;2.33;;;1.65;;
27804;SDS011;15183;51.350;11.102;2023-10-09T05:03:08;3.28;;;1.92;;
27804;SDS011;15183;51.350;11.102;2023-10-09T05:05:39;3.30;;;1.88;;
27804;SDS011;15183;51.350;11.102;2023-10-09T05:08:17;3.28;;;2.05;;
27804;SDS011;15183;51.350;11.102;2023-10-09T05:10:47;5.15;;;2.70;;
27804;SDS011;15183;51.350;11.102;2023-10-09T05:16:12;5.68;;;2.80;;
27804;SDS011;15183;51.350;11.102;2023-10-09T05:18:48;8.30;;;3.20;;
27804;SDS011;15183;51.350;11.102;2023-10-09T05:21:53;9.18;;;4.28;;
27804;SDS011;15183;51.350;11.102;2023-10-09T05:24:24;8.20;;;4.68;;
27804;SDS011;15183;51.350;11.102;2023-10-09T05:26:52;6.55;;;3.83;;
27804;SDS011;15183;51.350;11.102;2023-10-09T05:29:22;8.85;;;4.28;;
27804;SDS011;15183;51.350;11.102;2023-10-09T05:32:03;8.65;;;4.10;;
27804;SDS011;15183;51.350;11.102;2023-10-09T05:34:43;7.55;;;4.70;;
27804;SDS011;15183;51.350;11.102;2023-10-09T05:40:00;8.80;;;6.00;;
27804;SDS011;15183;51.350;11.102;2023-10-09T05:42:43;6.20;;;4.53;;
27804;SDS011;15183;51.350;11.102;2023-10-09T05:45:17;4.95;;;3.85;;
27804;SDS011;15183;51.350;11.102;2023-10-09T05:47:48;6.72;;;4.32;;
27804;SDS011;15183;51.350;11.102;2023-10-09T05:50:19;7.70;;;3.50;;
27804;SDS011;15183;51.350;11.102;2023-10-09T05:52:52;4.63;;;3.40;;
27804;SDS011;15183;51.350;11.102;2023-10-09T05:55:31;6.15;;;3.55;;
27804;SDS011;15183;51.350;11.102;2023-10-09T05:58:16;5.82;;;3.75;;
27804;SDS011;15183;51.350;11.102;2023-10-09T06:00:45;5.45;;;3.63;;
27804;SDS011;15183;51.350;11.102;2023-10-09T06:03:30;4.90;;;3.22;;
27804;SDS011;15183;51.350;11.102;2023-10-09T06:06:15;5.00;;;2.90;;
27804;SDS011;15183;51.350;11.102;2023-10-09T06:09:02;7.70;;;3.13;;
27804;SDS011;15183;51.350;11.102;2023-10-09T06:11:38;11.27;;;3.58;;
27804;SDS011;15183;51.350;11.102;2023-10-09T06:14:05;4.78;;;3.35;;
27804;SDS011;15183;51.350;11.102;2023-10-09T06:16:34;5.65;;;3.28;;
27804;SDS011;15183;51.350;11.102;2023-10-09T06:19:21;5.38;;;3.53;;
27804;SDS011;15183;51.350;11.102;2023-10-09T06:21:48;7.15;;;3.22;;
27804;SDS011;15183;51.350;11.102;2023-10-09T06:24:18;7.32;;;3.90;;
27804;SDS011;15183;51.350;11.102;2023-10-09T06:26:49;8.13;;;4.18;;
27804;SDS011;15183;51.350;11.102;2023-10-09T06:29:25;7.03;;;3.90;;
27804;SDS011;15183;51.350;11.102;2023-10-09T06:32:02;7.47;;;4.28;;
27804;SDS011;15183;51.350;11.102;2023-10-09T06:37:44;7.65;;;3.35;;
27804;SDS011;15183;51.350;11.102;2023-10-09T06:40:28;4.85;;;3.13;;
27804;SDS011;15183;51.350;11.102;2023-10-09T06:43:03;6.70;;;3.53;;
27804;SDS011;15183;51.350;11.102;2023-10-09T06:45:40;5.57;;;3.40;;
27804;SDS011;15183;51.350;11.102;2023-10-09T06:48:10;7.25;;;3.55;;
27804;SDS011;15183;51.350;11.102;2023-10-09T06:50:57;8.40;;;3.45;;
27804;SDS011;15183;51.350;11.102;2023-10-09T06:53:47;6.60;;;2.97;;
27804;SDS011;15183;51.350;11.102;2023-10-09T06:56:25;4.32;;;3.20;;
27804;SDS011;15183;51.350;11.102;2023-10-09T06:58:57;5.45;;;3.17;;
27804;SDS011;15183;51.350;11.102;2023-10-09T07:01:25;6.78;;;3.60;;
27804;SDS011;15183;51.350;11.102;2023-10-09T07:03:56;5.60;;;3.38;;
27804;SDS011;15183;51.350;11.102;2023-10-09T07:06:36;12.02;;;4.45;;
27804;SDS011;15183;51.350;11.102;2023-10-09T07:09:02;9.25;;;4.10;;
27804;SDS011;15183;51.350;11.102;2023-10-09T07:11:32;7.13;;;4.25;;
27804;SDS011;15183;51.350;11.102;2023-10-09T07:17:01;9.75;;;4.18;;
27804;SDS011;15183;51.350;11.102;2023-10-09T07:19:50;8.68;;;4.38;;
27804;SDS011;15183;51.350;11.102;2023-10-09T07:22:21;6.93;;;4.00;;
27804;SDS011;15183;51.350;11.102;2023-10-09T07:27:24;7.47;;;4.30;;
27804;SDS011;15183;51.350;11.102;2023-10-09T07:30:10;8.83;;;3.77;;
27804;SDS011;15183;51.350;11.102;2023-10-09T07:35:37;6.53;;;3.90;;
27804;SDS011;15183;51.350;11.102;2023-10-09T07:40:46;5.25;;;3.75;;
27804;SDS011;15183;51.350;11.102;2023-10-09T07:43:33;7.80;;;4.00;;
27804;SDS011;15183;51.350;11.102;2023-10-09T07:46:08;9.30;;;4.55;;
27804;SDS011;15183;51.350;11.102;2023-10-09T07:48:55;9.20;;;4.35;;
27804;SDS011;15183;51.350;11.102;2023-10-09T07:51:23;7.45;;;4.68;;
27804;SDS011;15183;51.350;11.102;2023-10-09T07:53:59;11.45;;;5.40;;
27804;SDS011;15183;51.350;11.102;2023-10-09T07:56:38;11.00;;;4.55;;
27804;SDS011;15183;51.350;11.102;2023-10-09T07:59:07;8.65;;;4.07;;
27804;SDS011;15183;51.350;11.102;2023-10-09T08:01:37;8.88;;;4.50;;
27804;SDS011;15183;51.350;11.102;2023-10-09T08:04:27;10.10;;;4.68;;
27804;SDS011;15183;51.350;11.102;2023-10-09T08:07:10;6.28;;;4.25;;
27804;SDS011;15183;51.350;11.102;2023-10-09T08:09:51;6.43;;;3.72;;
27804;SDS011;15183;51.350;11.102;2023-10-09T08:12:37;5.40;;;3.65;;
27804;SDS011;15183;51.350;11.102;2023-10-09T08:15:24;7.80;;;4.28;;
27804;SDS011;15183;51.350;11.102;2023-10-09T08:18:16;9.63;;;4.20;;
27804;SDS011;15183;51.350;11.102;2023-10-09T08:20:55;9.57;;;4.47;;
27804;SDS011;15183;51.350;11.102;2023-10-09T08:23:24;9.32;;;5.35;;
27804;SDS011;15183;51.350;11.102;2023-10-09T08:26:14;12.00;;;5.00;;
27804;SDS011;15183;51.350;11.102;2023-10-09T08:28:54;9.68;;;4.40;;
27804;SDS011;15183;51.350;11.102;2023-10-09T08:31:40;9.00;;;4.70;;
27804;SDS011;15183;51.350;11.102;2023-10-09T08:34:22;9.23;;;5.15;;
27804;SDS011;15183;51.350;11.102;2023-10-09T08:36:52;9.40;;;4.82;;
27804;SDS011;15183;51.350;11.102;2023-10-09T08:39:20;11.63;;;4.35;;
27804;SDS011;15183;51.350;11.102;2023-10-09T08:44:24;7.88;;;3.85;;
27804;SDS011;15183;51.350;11.102;2023-10-09T08:46:56;9.45;;;4.72;;
27804;SDS011;15183;51.350;11.102;2023-10-09T08:49:24;8.10;;;4.25;;
27804;SDS011;15183;51.350;11.102;2023-10-09T08:51:52;8.32;;;4.28;;
27804;SDS011;15183;51.350;11.102;2023-10-09T08:54:19;8.00;;;4.82;;
27804;SDS011;15183;51.350;11.102;2023-10-09T08:56:45;10.15;;;5.07;;
27804;SDS011;15183;51.350;11.102;2023-10-09T08:59:15;9.48;;;5.25;;
27804;SDS011;15183;51.350;11.102;2023-10-09T09:01:47;8.13;;;5.03;;
27804;SDS011;15183;51.350;11.102;2023-10-09T09:09:55;8.63;;;5.63;;
27804;SDS011;15183;51.350;11.102;2023-10-09T09:12:46;11.38;;;6.35;;
27804;SDS011;15183;51.350;11.102;2023-10-09T09:15:19;10.13;;;6.95;;
27804;SDS011;15183;51.350;11.102;2023-10-09T09:17:46;11.23;;;5.93;;
27804;SDS011;15183;51.350;11.102;2023-10-09T09:24:03;12.65;;;5.47;;
27804;SDS011;15183;51.350;11.102;2023-10-09T09:26:51;11.73;;;5.43;;
27804;SDS011;15183;51.350;11.102;2023-10-09T09:32:03;9.20;;;5.78;;
27804;SDS011;15183;51.350;11.102;2023-10-09T09:34:46;10.13;;;6.93;;
27804;SDS011;15183;51.350;11.102;2023-10-09T09:37:25;11.65;;;7.28;;
27804;SDS011;15183;51.350;11.102;2023-10-09T09:39:57;16.25;;;7.72;;
27804;SDS011;15183;51.350;11.102;2023-10-09T09:42:29;12.65;;;7.55;;
27804;SDS011;15183;51.350;11.102;2023-10-09T09:45:01;14.57;;;7.25;;
27804;SDS011;15183;51.350;11.102;2023-10-09T09:47:29;16.13;;;8.35;;
27804;SDS011;15183;51.350;11.102;2023-10-09T09:50:01;14.07;;;8.70;;
27804;SDS011;15183;51.350;11.102;2023-10-09T09:52:48;13.30;;;6.93;;
27804;SDS011;15183;51.350;11.102;2023-10-09T09:55:20;20.50;;;9.80;;
27804;SDS011;15183;51.350;11.102;2023-10-09T09:57:57;17.52;;;9.10;;
27804;SDS011;15183;51.350;11.102;2023-10-09T10:00:26;13.70;;;8.20;;
27804;SDS011;15183;51.350;11.102;2023-10-09T10:03:10;13.68;;;7.68;;
27804;SDS011;15183;51.350;11.102;2023-10-09T10:05:49;12.63;;;7.45;;
27804;SDS011;15183;51.350;11.102;2023-10-09T10:08:18;11.30;;;6.38;;
27804;SDS011;15183;51.350;11.102;2023-10-09T10:10:47;12.50;;;6.45;;
27804;SDS011;15183;51.350;11.102;2023-10-09T10:16:10;11.35;;;6.32;;
27804;SDS011;15183;51.350;11.102;2023-10-09T10:19:05;10.60;;;5.93;;
27804;SDS011;15183;51.350;11.102;2023-10-09T10:21:43;8.70;;;5.93;;
27804;SDS011;15183;51.350;11.102;2023-10-09T10:27:15;8.85;;;5.85;;
27804;SDS011;15183;51.350;11.102;2023-10-09T10:35:18;7.68;;;5.78;;
27804;SDS011;15183;51.350;11.102;2023-10-09T10:37:58;8.68;;;5.28;;
27804;SDS011;15183;51.350;11.102;2023-10-09T10:40:43;8.02;;;5.80;;
27804;SDS011;15183;51.350;11.102;2023-10-09T10:43:18;10.52;;;5.75;;
27804;SDS011;15183;51.350;11.102;2023-10-09T10:46:00;8.40;;;5.28;;
27804;SDS011;15183;51.350;11.102;2023-10-09T10:48:34;8.57;;;5.28;;
27804;SDS011;15183;51.350;11.102;2023-10-09T10:51:04;7.32;;;4.63;;
27804;SDS011;15183;51.350;11.102;2023-10-09T10:53:31;8.73;;;5.38;;
27804;SDS011;15183;51.350;11.102;2023-10-09T10:56:13;13.75;;;5.45;;
27804;SDS011;15183;51.350;11.102;2023-10-09T10:58:40;11.40;;;5.90;;
27804;SDS011;15183;51.350;11.102;2023-10-09T11:01:32;9.90;;;6.05;;
27804;SDS011;15183;51.350;11.102;2023-10-09T11:04:21;9.38;;;5.70;;
27804;SDS011;15183;51.350;11.102;2023-10-09T11:06:57;9.02;;;5.75;;
27804;SDS011;15183;51.350;11.102;2023-10-09T11:09:48;9.05;;;5.43;;
27804;SDS011;15183;51.350;11.102;2023-10-09T11:15:10;14.30;;;6.85;;
27804;SDS011;15183;51.350;11.102;2023-10-09T11:18:04;11.25;;;6.18;;
27804;SDS011;15183;51.350;11.102;2023-10-09T11:20:43;11.15;;;5.47;;
27804;SDS011;15183;51.350;11.102;2023-10-09T11:23:22;10.45;;;5.70;;
27804;SDS011;15183;51.350;11.102;2023-10-09T11:26:01;11.50;;;5.72;;
27804;SDS011;15183;51.350;11.102;2023-10-09T11:29:07;9.27;;;6.05;;
27804;SDS011;15183;51.350;11.102;2023-10-09T11:34:26;8.95;;;5.30;;
27804;SDS011;15183;51.350;11.102;2023-10-09T11:36:58;11.02;;;5.43;;
27804;SDS011;15183;51.350;11.102;2023-10-09T11:39:26;11.93;;;5.80;;
27804;SDS011;15183;51.350;11.102;2023-10-09T11:42:06;10.00;;;5.55;;
27804;SDS011;15183;51.350;11.102;2023-10-09T11:44:34;8.95;;;5.30;;
27804;SDS011;15183;51.350;11.102;2023-10-09T11:47:05;9.65;;;5.72;;
27804;SDS011;15183;51.350;11.102;2023-10-09T11:52:22;10.13;;;6.00;;
27804;SDS011;15183;51.350;11.102;2023-10-09T11:55:01;12.38;;;4.93;;
27804;SDS011;15183;51.350;11.102;2023-10-09T11:57:29;7.32;;;4.97;;
27804;SDS011;15183;51.350;11.102;2023-10-09T11:59:59;7.85;;;4.97;;
27804;SDS011;15183;51.350;11.102;2023-10-09T12:02:35;8.25;;;5.28;;
27804;SDS011;15183;51.350;11.102;2023-10-09T12:05:10;10.40;;;5.38;;
27804;SDS011;15183;51.350;11.102;2023-10-09T12:07:43;8.13;;;5.22;;
27804;SDS011;15183;51.350;11.102;2023-10-09T12:10:11;12.15;;;5.30;;
27804;SDS011;15183;51.350;11.102;2023-10-09T12:12:41;11.35;;;6.28;;
27804;SDS011;15183;51.350;11.102;2023-10-09T12:15:12;8.20;;;5.15;;
27804;SDS011;15183;51.350;11.102;2023-10-09T12:17:45;8.88;;;5.38;;
27804;SDS011;15183;51.350;11.102;2023-10-09T12:20:16;9.13;;;4.85;;
27804;SDS011;15183;51.350;11.102;2023-10-09T12:22:58;7.40;;;4.50;;
27804;SDS011;15183;51.350;11.102;2023-10-09T12:25:25;6.85;;;4.70;;
27804;SDS011;15183;51.350;11.102;2023-10-09T12:27:52;10.20;;;5.13;;
27804;SDS011;15183;51.350;11.102;2023-10-09T12:30:23;7.78;;;4.53;;
27804;SDS011;15183;51.350;11.102;2023-10-09T12:32:53;7.68;;;4.57;;
27804;SDS011;15183;51.350;11.102;2023-10-09T12:35:20;8.60;;;4.70;;
27804;SDS011;15183;51.350;11.102;2023-10-09T12:37:47;8.48;;;4.60;;
27804;SDS011;15183;51.350;11.102;2023-10-09T12:40:14;10.45;;;4.93;;
27804;SDS011;15183;51.350;11.102;2023-10-09T12:42:50;7.38;;;4.97;;
27804;SDS011;15183;51.350;11.102;2023-10-09T12:45:21;8.30;;;5.20;;
27804;SDS011;15183;51.350;11.102;2023-10-09T12:47:58;8.38;;;4.28;;
27804;SDS011;15183;51.350;11.102;2023-10-09T12:50:25;10.38;;;6.05;;
27804;SDS011;15183;51.350;11.102;2023-10-09T12:52:55;9.20;;;5.47;;
27804;SDS011;15183;51.350;11.102;2023-10-09T12:55:38;9.50;;;5.55;;
27804;SDS011;15183;51.350;11.102;2023-10-09T12:58:07;11.38;;;5.10;;
27804;SDS011;15183;51.350;11.102;2023-10-09T13:00:35;8.57;;;5.20;;
27804;SDS011;15183;51.350;11.102;2023-10-09T13:03:05;9.95;;;5.13;;
27804;SDS011;15183;51.350;11.102;2023-10-09T13:05:43;8.30;;;5.07;;
27804;SDS011;15183;51.350;11.102;2023-10-09T13:08:19;7.15;;;5.10;;
27804;SDS011;15183;51.350;11.102;2023-10-09T13:10:50;11.85;;;5.88;;
27804;SDS011;15183;51.350;11.102;2023-10-09T13:13:27;8.93;;;4.88;;
27804;SDS011;15183;51.350;11.102;2023-10-09T13:16:15;7.97;;;5.15;;
27804;SDS011;15183;51.350;11.102;2023-10-09T13:18:54;11.40;;;5.32;;
27804;SDS011;15183;51.350;11.102;2023-10-09T13:21:31;6.63;;;4.82;;
27804;SDS011;15183;51.350;11.102;2023-10-09T13:23:58;9.02;;;5.65;;
27804;SDS011;15183;51.350;11.102;2023-10-09T13:26:26;10.38;;;5.45;;
27804;SDS011;15183;51.350;11.102;2023-10-09T13:29:01;9.13;;;5.30;;
27804;SDS011;15183;51.350;11.102;2023-10-09T13:31:29;9.40;;;5.18;;
27804;SDS011;15183;51.350;11.102;2023-10-09T13:33:59;11.38;;;5.65;;
27804;SDS011;15183;51.350;11.102;2023-10-09T13:36:26;10.57;;;5.97;;
27804;SDS011;15183;51.350;11.102;2023-10-09T13:39:03;7.50;;;4.82;;
27804;SDS011;15183;51.350;11.102;2023-10-09T13:41:51;9.88;;;4.90;;
27804;SDS011;15183;51.350;11.102;2023-10-09T13:44:29;11.45;;;5.22;;
27804;SDS011;15183;51.350;11.102;2023-10-09T13:46:58;8.10;;;5.55;;
27804;SDS011;15183;51.350;11.102;2023-10-09T13:49:27;10.32;;;6.18;;
27804;SDS011;15183;51.350;11.102;2023-10-09T13:51:57;10.50;;;5.93;;
27804;SDS011;15183;51.350;11.102;2023-10-09T13:54:27;10.43;;;6.03;;
27804;SDS011;15183;51.350;11.102;2023-10-09T13:57:05;10.77;;;6.22;;
27804;SDS011;15183;51.350;11.102;2023-10-09T13:59:33;9.30;;;6.15;;
27804;SDS011;15183;51.350;11.102;2023-10-09T14:02:01;10.10;;;6.63;;
27804;SDS011;15183;51.350;11.102;2023-10-09T14:04:35;9.27;;;6.00;;
27804;SDS011;15183;51.350;11.102;2023-10-09T14:07:02;9.43;;;6.20;;
27804;SDS011;15183;51.350;11.102;2023-10-09T14:09:31;11.43;;;6.68;;
27804;SDS011;15183;51.350;11.102;2023-10-09T14:11:58;10.82;;;6.63;;
27804;SDS011;15183;51.350;11.102;2023-10-09T14:14:36;11.95;;;6.18;;
27804;SDS011;15183;51.350;11.102;2023-10-09T14:17:09;13.48;;;6.20;;
27804;SDS011;15183;51.350;11.102;2023-10-09T14:22:07;10.20;;;7.72;;
27804;SDS011;15183;51.350;11.102;2023-10-09T14:24:33;11.57;;;6.95;;
27804;SDS011;15183;51.350;11.102;2023-10-09T14:27:00;9.57;;;5.72;;
27804;SDS011;15183;51.350;11.102;2023-10-09T14:29:32;7.72;;;5.63;;
27804;SDS011;15183;51.350;11.102;2023-10-09T14:32:03;8.43;;;5.25;;
27804;SDS011;15183;51.350;11.102;2023-10-09T14:34:29;8.55;;;5.55;;
27804;SDS011;15183;51.350;11.102;2023-10-09T14:37:01;9.40;;;5.60;;
27804;SDS011;15183;51.350;11.102;2023-10-09T14:39:28;10.20;;;6.15;;
27804;SDS011;15183;51.350;11.102;2023-10-09T14:41:55;7.82;;;5.90;;
27804;SDS011;15183;51.350;11.102;2023-10-09T14:44:24;9.32;;;5.32;;
27804;SDS011;15183;51.350;11.102;2023-10-09T14:46:53;13.13;;;5.65;;
27804;SDS011;15183;51.350;11.102;2023-10-09T14:49:21;10.30;;;6.28;;
27804;SDS011;15183;51.350;11.102;2023-10-09T14:51:47;12.15;;;6.85;;
27804;SDS011;15183;51.350;11.102;2023-10-09T14:54:14;13.05;;;6.97;;
27804;SDS011;15183;51.350;11.102;2023-10-09T14:56:44;12.02;;;6.68;;
27804;SDS011;15183;51.350;11.102;2023-10-09T14:59:11;9.18;;;6.18;;
27804;SDS011;15183;51.350;11.102;2023-10-09T15:01:37;10.45;;;6.25;;
27804;SDS011;15183;51.350;11.102;2023-10-09T15:04:04;9.65;;;6.72;;
27804;SDS011;15183;51.350;11.102;2023-10-09T15:06:30;8.65;;;6.60;;
27804;SDS011;15183;51.350;11.102;2023-10-09T15:08:57;9.00;;;6.40;;
27804;SDS011;15183;51.350;11.102;2023-10-09T15:11:26;10.82;;;6.38;;
27804;SDS011;15183;51.350;11.102;2023-10-09T15:13:57;8.77;;;5.97;;
27804;SDS011;15183;51.350;11.102;2023-10-09T15:16:26;9.65;;;6.55;;
27804;SDS011;15183;51.350;11.102;2023-10-09T15:18:55;11.95;;;6.85;;
27804;SDS011;15183;51.350;11.102;2023-10-09T15:21:23;11.55;;;6.43;;
27804;SDS011;15183;51.350;11.102;2023-10-09T15:23:54;10.60;;;6.20;;
27804;SDS011;15183;51.350;11.102;2023-10-09T15:26:22;12.48;;;6.47;;
27804;SDS011;15183;51.350;11.102;2023-10-09T15:28:52;7.30;;;5.70;;
27804;SDS011;15183;51.350;11.102;2023-10-09T15:31:19;9.93;;;6.68;;
27804;SDS011;15183;51.350;11.102;2023-10-09T15:33:47;10.98;;;7.47;;
27804;SDS011;15183;51.350;11.102;2023-10-09T15:36:17;10.70;;;7.30;;
27804;SDS011;15183;51.350;11.102;2023-10-09T15:38:48;10.57;;;6.35;;
27804;SDS011;15183;51.350;11.102;2023-10-09T15:41:15;9.98;;;6.82;;
27804;SDS011;15183;51.350;11.102;2023-10-09T15:43:43;15.15;;;7.38;;
27804;SDS011;15183;51.350;11.102;2023-10-09T15:46:11;12.00;;;7.10;;
27804;SDS011;15183;51.350;11.102;2023-10-09T15:48:43;9.25;;;6.78;;
27804;SDS011;15183;51.350;11.102;2023-10-09T15:51:12;10.45;;;7.32;;
27804;SDS011;15183;51.350;11.102;2023-10-09T15:53:42;9.13;;;6.57;;
27804;SDS011;15183;51.350;11.102;2023-10-09T15:56:12;11.73;;;8.00;;
27804;SDS011;15183;51.350;11.102;2023-10-09T15:58:40;12.68;;;8.32;;
27804;SDS011;15183;51.350;11.102;2023-10-09T16:01:09;11.70;;;8.60;;
27804;SDS011;15183;51.350;11.102;2023-10-09T16:03:41;13.60;;;8.98;;
27804;SDS011;15183;51.350;11.102;2023-10-09T16:06:12;12.05;;;8.90;;
27804;SDS011;15183;51.350;11.102;2023-10-09T16:08:39;15.98;;;9.45;;